sensor_id;sensor_type;location;lat;lon;timestamp;temperature;humidity
42663;DHT22;44330;51.360;6.686;2023-10-31T00:02:17;11.90;88.80
42663;DHT22;44330;51.360;6.686;2023-10-31T00:04:42;11.80;88.80
42663;DHT22;44330;51.360;6.686;2023-10-31T00:07:08;11.80;88.60
42663;DHT22;44330;51.360;6.686;2023-10-31T00:09:33;11.80;88.50
42663;DHT22;44330;51.360;6.686;2023-10-31T00:11:59;11.70;86.80
42663;DHT22;44330;51.360;6.686;2023-10-31T00:14:24;11.80;87.00
42663;DHT22;44330;51.360;6.686;2023-10-31T00:16:50;11.70;87.90
42663;DHT22;44330;51.360;6.686;2023-10-31T00:19:15;11.60;86.60
42663;DHT22;44330;51.360;6.686;2023-10-31T00:21:41;11.60;86.10
42663;DHT22;44330;51.360;6.686;2023-10-31T00:24:06;11.60;85.70
42663;DHT22;44330;51.360;6.686;2023-10-31T00:26:32;11.60;84.10
42663;DHT22;44330;51.360;6.686;2023-10-31T00:28:57;11.60;84.40
42663;DHT22;44330;51.360;6.686;2023-10-31T00:31:23;11.50;83.00
42663;DHT22;44330;51.360;6.686;2023-10-31T00:33:48;11.50;81.60
42663;DHT22;44330;51.360;6.686;2023-10-31T00:36:14;11.40;80.30
42663;DHT22;44330;51.360;6.686;2023-10-31T00:38:39;11.40;81.40
42663;DHT22;44330;51.360;6.686;2023-10-31T00:41:05;11.40;83.60
42663;DHT22;44330;51.360;6.686;2023-10-31T00:43:30;11.40;84.20
42663;DHT22;44330;51.360;6.686;2023-10-31T00:45:56;11.40;86.00
42663;DHT22;44330;51.360;6.686;2023-10-31T00:48:21;11.30;84.20
42663;DHT22;44330;51.360;6.686;2023-10-31T00:50:47;11.30;84.70
42663;DHT22;44330;51.360;6.686;2023-10-31T00:53:12;11.30;85.70
42663;DHT22;44330;51.360;6.686;2023-10-31T00:55:40;11.30;86.70
42663;DHT22;44330;51.360;6.686;2023-10-31T00:58:05;11.30;87.30
42663;DHT22;44330;51.360;6.686;2023-10-31T01:00:31;11.30;87.00
42663;DHT22;44330;51.360;6.686;2023-10-31T01:02:57;11.30;86.30
42663;DHT22;44330;51.360;6.686;2023-10-31T01:05:22;11.30;85.10
42663;DHT22;44330;51.360;6.686;2023-10-31T01:07:48;11.30;85.30
42663;DHT22;44330;51.360;6.686;2023-10-31T01:10:13;11.20;85.80
42663;DHT22;44330;51.360;6.686;2023-10-31T01:12:39;11.30;86.20
42663;DHT22;44330;51.360;6.686;2023-10-31T01:15:04;11.30;84.80
42663;DHT22;44330;51.360;6.686;2023-10-31T01:17:30;11.30;85.50
42663;DHT22;44330;51.360;6.686;2023-10-31T01:19:55;11.30;85.30
42663;DHT22;44330;51.360;6.686;2023-10-31T01:22:21;11.30;85.20
42663;DHT22;44330;51.360;6.686;2023-10-31T01:24:46;11.20;85.30
42663;DHT22;44330;51.360;6.686;2023-10-31T01:27:12;11.30;84.60
42663;DHT22;44330;51.360;6.686;2023-10-31T01:29:37;11.40;84.80
42663;DHT22;44330;51.360;6.686;2023-10-31T01:32:03;11.30;83.80
42663;DHT22;44330;51.360;6.686;2023-10-31T01:34:28;11.30;84.40
42663;DHT22;44330;51.360;6.686;2023-10-31T01:36:54;11.30;85.40
42663;DHT22;44330;51.360;6.686;2023-10-31T01:39:19;11.20;85.30
42663;DHT22;44330;51.360;6.686;2023-10-31T01:41:45;11.20;85.50
42663;DHT22;44330;51.360;6.686;2023-10-31T01:44:10;11.30;86.30
42663;DHT22;44330;51.360;6.686;2023-10-31T01:46:36;11.20;87.40
42663;DHT22;44330;51.360;6.686;2023-10-31T01:49:01;11.20;86.80
42663;DHT22;44330;51.360;6.686;2023-10-31T01:51:28;11.20;87.30
42663;DHT22;44330;51.360;6.686;2023-10-31T01:53:53;11.20;88.10
42663;DHT22;44330;51.360;6.686;2023-10-31T01:56:19;11.10;89.00
42663;DHT22;44330;51.360;6.686;2023-10-31T01:58:45;11.20;89.60
42663;DHT22;44330;51.360;6.686;2023-10-31T02:01:11;11.00;90.00
42663;DHT22;44330;51.360;6.686;2023-10-31T02:03:37;11.10;90.50
42663;DHT22;44330;51.360;6.686;2023-10-31T02:06:04;11.20;90.80
42663;DHT22;44330;51.360;6.686;2023-10-31T02:08:30;11.10;91.00
42663;DHT22;44330;51.360;6.686;2023-10-31T02:10:55;11.10;91.00
42663;DHT22;44330;51.360;6.686;2023-10-31T02:13:21;11.10;91.20
42663;DHT22;44330;51.360;6.686;2023-10-31T02:15:46;11.10;91.30
42663;DHT22;44330;51.360;6.686;2023-10-31T02:18:12;11.10;91.10
42663;DHT22;44330;51.360;6.686;2023-10-31T02:20:38;11.00;91.30
42663;DHT22;44330;51.360;6.686;2023-10-31T02:23:03;11.10;91.60
42663;DHT22;44330;51.360;6.686;2023-10-31T02:25:29;11.10;91.50
42663;DHT22;44330;51.360;6.686;2023-10-31T02:27:55;11.10;91.40
42663;DHT22;44330;51.360;6.686;2023-10-31T02:30:20;11.20;91.30
42663;DHT22;44330;51.360;6.686;2023-10-31T02:32:46;11.10;91.40
42663;DHT22;44330;51.360;6.686;2023-10-31T02:35:12;11.10;91.30
42663;DHT22;44330;51.360;6.686;2023-10-31T02:37:39;11.10;91.40
42663;DHT22;44330;51.360;6.686;2023-10-31T02:40:07;11.10;91.50
42663;DHT22;44330;51.360;6.686;2023-10-31T02:42:33;11.10;91.50
42663;DHT22;44330;51.360;6.686;2023-10-31T02:44:58;11.10;91.50
42663;DHT22;44330;51.360;6.686;2023-10-31T02:47:24;11.10;91.60
42663;DHT22;44330;51.360;6.686;2023-10-31T02:49:49;11.20;91.30
42663;DHT22;44330;51.360;6.686;2023-10-31T02:52:15;11.10;91.30
42663;DHT22;44330;51.360;6.686;2023-10-31T02:54:40;11.10;91.30
42663;DHT22;44330;51.360;6.686;2023-10-31T02:57:06;11.10;91.30
42663;DHT22;44330;51.360;6.686;2023-10-31T02:59:31;11.20;90.50
42663;DHT22;44330;51.360;6.686;2023-10-31T03:01:57;11.20;90.60
42663;DHT22;44330;51.360;6.686;2023-10-31T03:04:23;11.20;90.60
42663;DHT22;44330;51.360;6.686;2023-10-31T03:06:48;11.20;90.60
42663;DHT22;44330;51.360;6.686;2023-10-31T03:09:14;11.20;90.20
42663;DHT22;44330;51.360;6.686;2023-10-31T03:11:39;11.20;90.10
42663;DHT22;44330;51.360;6.686;2023-10-31T03:14:05;11.30;90.00
42663;DHT22;44330;51.360;6.686;2023-10-31T03:16:30;11.20;90.10
42663;DHT22;44330;51.360;6.686;2023-10-31T03:18:56;11.20;90.40
42663;DHT22;44330;51.360;6.686;2023-10-31T03:21:21;11.10;90.60
42663;DHT22;44330;51.360;6.686;2023-10-31T03:23:47;11.30;90.60
42663;DHT22;44330;51.360;6.686;2023-10-31T03:26:14;11.20;90.80
42663;DHT22;44330;51.360;6.686;2023-10-31T03:28:39;11.10;91.10
42663;DHT22;44330;51.360;6.686;2023-10-31T03:31:05;11.10;91.20
42663;DHT22;44330;51.360;6.686;2023-10-31T03:33:30;11.20;91.20
42663;DHT22;44330;51.360;6.686;2023-10-31T03:35:56;11.20;90.90
42663;DHT22;44330;51.360;6.686;2023-10-31T03:38:21;11.10;91.10
42663;DHT22;44330;51.360;6.686;2023-10-31T03:40:47;11.20;91.10
42663;DHT22;44330;51.360;6.686;2023-10-31T03:43:12;11.10;91.20
42663;DHT22;44330;51.360;6.686;2023-10-31T03:45:38;11.20;91.40
42663;DHT22;44330;51.360;6.686;2023-10-31T03:48:03;11.10;91.50
42663;DHT22;44330;51.360;6.686;2023-10-31T03:50:29;11.10;91.70
42663;DHT22;44330;51.360;6.686;2023-10-31T03:52:55;11.10;91.70
42663;DHT22;44330;51.360;6.686;2023-10-31T03:55:20;11.10;92.20
42663;DHT22;44330;51.360;6.686;2023-10-31T03:57:46;11.10;92.10
42663;DHT22;44330;51.360;6.686;2023-10-31T04:00:11;11.10;92.10
42663;DHT22;44330;51.360;6.686;2023-10-31T04:02:37;11.00;92.20
42663;DHT22;44330;51.360;6.686;2023-10-31T04:05:04;11.00;92.40
42663;DHT22;44330;51.360;6.686;2023-10-31T04:07:30;11.00;92.60
42663;DHT22;44330;51.360;6.686;2023-10-31T04:09:55;11.00;92.90
42663;DHT22;44330;51.360;6.686;2023-10-31T04:12:21;11.10;93.00
42663;DHT22;44330;51.360;6.686;2023-10-31T04:14:47;11.00;92.70
42663;DHT22;44330;51.360;6.686;2023-10-31T04:17:12;11.00;92.70
42663;DHT22;44330;51.360;6.686;2023-10-31T04:19:38;10.90;92.80
42663;DHT22;44330;51.360;6.686;2023-10-31T04:22:03;10.90;93.00
42663;DHT22;44330;51.360;6.686;2023-10-31T04:24:29;10.90;93.00
42663;DHT22;44330;51.360;6.686;2023-10-31T04:26:54;11.00;93.00
42663;DHT22;44330;51.360;6.686;2023-10-31T04:29:20;11.00;93.00
42663;DHT22;44330;51.360;6.686;2023-10-31T04:31:45;11.00;93.00
42663;DHT22;44330;51.360;6.686;2023-10-31T04:34:11;11.00;93.10
42663;DHT22;44330;51.360;6.686;2023-10-31T04:36:36;10.90;93.10
42663;DHT22;44330;51.360;6.686;2023-10-31T04:39:02;10.90;93.20
42663;DHT22;44330;51.360;6.686;2023-10-31T04:41:27;10.90;93.30
42663;DHT22;44330;51.360;6.686;2023-10-31T04:43:53;10.90;93.50
42663;DHT22;44330;51.360;6.686;2023-10-31T04:46:19;10.80;93.50
42663;DHT22;44330;51.360;6.686;2023-10-31T04:48:44;10.90;93.70
42663;DHT22;44330;51.360;6.686;2023-10-31T04:51:10;10.90;93.80
42663;DHT22;44330;51.360;6.686;2023-10-31T04:53:35;10.90;93.70
42663;DHT22;44330;51.360;6.686;2023-10-31T04:56:01;10.90;93.70
42663;DHT22;44330;51.360;6.686;2023-10-31T04:58:26;10.90;93.70
42663;DHT22;44330;51.360;6.686;2023-10-31T05:00:52;11.00;93.70
42663;DHT22;44330;51.360;6.686;2023-10-31T05:03:17;11.00;93.40
42663;DHT22;44330;51.360;6.686;2023-10-31T05:05:43;11.00;93.20
42663;DHT22;44330;51.360;6.686;2023-10-31T05:08:08;11.00;93.00
42663;DHT22;44330;51.360;6.686;2023-10-31T05:10:34;11.00;92.90
42663;DHT22;44330;51.360;6.686;2023-10-31T05:13:03;11.10;92.90
42663;DHT22;44330;51.360;6.686;2023-10-31T05:15:28;11.00;92.80
42663;DHT22;44330;51.360;6.686;2023-10-31T05:17:54;11.00;93.00
42663;DHT22;44330;51.360;6.686;2023-10-31T05:20:19;11.00;93.10
42663;DHT22;44330;51.360;6.686;2023-10-31T05:22:46;11.00;93.10
42663;DHT22;44330;51.360;6.686;2023-10-31T05:25:11;10.90;93.00
42663;DHT22;44330;51.360;6.686;2023-10-31T05:27:37;11.00;93.20
42663;DHT22;44330;51.360;6.686;2023-10-31T05:30:03;11.00;93.10
42663;DHT22;44330;51.360;6.686;2023-10-31T05:32:28;11.00;93.30
42663;DHT22;44330;51.360;6.686;2023-10-31T05:34:54;11.00;93.30
42663;DHT22;44330;51.360;6.686;2023-10-31T05:37:20;10.90;93.10
42663;DHT22;44330;51.360;6.686;2023-10-31T05:39:45;11.00;92.80
42663;DHT22;44330;51.360;6.686;2023-10-31T05:42:11;11.00;92.60
42663;DHT22;44330;51.360;6.686;2023-10-31T05:44:36;11.00;92.60
42663;DHT22;44330;51.360;6.686;2023-10-31T05:47:02;11.00;92.60
42663;DHT22;44330;51.360;6.686;2023-10-31T05:49:27;10.90;92.70
42663;DHT22;44330;51.360;6.686;2023-10-31T05:51:53;10.90;92.70
42663;DHT22;44330;51.360;6.686;2023-10-31T05:54:18;10.80;92.90
42663;DHT22;44330;51.360;6.686;2023-10-31T05:56:44;10.80;93.10
42663;DHT22;44330;51.360;6.686;2023-10-31T05:59:12;10.80;93.00
42663;DHT22;44330;51.360;6.686;2023-10-31T06:01:38;10.80;92.70
42663;DHT22;44330;51.360;6.686;2023-10-31T06:04:04;10.90;92.50
42663;DHT22;44330;51.360;6.686;2023-10-31T06:06:31;10.80;92.10
42663;DHT22;44330;51.360;6.686;2023-10-31T06:08:56;10.80;92.30
42663;DHT22;44330;51.360;6.686;2023-10-31T06:11:22;10.80;92.60
42663;DHT22;44330;51.360;6.686;2023-10-31T06:13:47;10.70;92.70
42663;DHT22;44330;51.360;6.686;2023-10-31T06:16:13;10.80;92.90
42663;DHT22;44330;51.360;6.686;2023-10-31T06:18:39;10.80;92.80
42663;DHT22;44330;51.360;6.686;2023-10-31T06:21:05;10.80;92.70
42663;DHT22;44330;51.360;6.686;2023-10-31T06:23:31;10.80;92.60
42663;DHT22;44330;51.360;6.686;2023-10-31T06:25:56;10.80;92.60
42663;DHT22;44330;51.360;6.686;2023-10-31T06:28:22;10.90;92.60
42663;DHT22;44330;51.360;6.686;2023-10-31T06:30:48;10.90;92.50
42663;DHT22;44330;51.360;6.686;2023-10-31T06:33:13;10.90;92.40
42663;DHT22;44330;51.360;6.686;2023-10-31T06:35:39;11.10;92.20
42663;DHT22;44330;51.360;6.686;2023-10-31T06:38:05;10.90;92.30
42663;DHT22;44330;51.360;6.686;2023-10-31T06:40:30;10.90;92.60
42663;DHT22;44330;51.360;6.686;2023-10-31T06:42:56;10.90;92.80
42663;DHT22;44330;51.360;6.686;2023-10-31T06:45:21;10.90;93.10
42663;DHT22;44330;51.360;6.686;2023-10-31T06:47:47;10.90;93.20
42663;DHT22;44330;51.360;6.686;2023-10-31T06:50:12;10.90;93.30
42663;DHT22;44330;51.360;6.686;2023-10-31T06:52:38;10.90;93.30
42663;DHT22;44330;51.360;6.686;2023-10-31T06:55:04;10.80;93.30
42663;DHT22;44330;51.360;6.686;2023-10-31T06:57:29;10.80;93.40
42663;DHT22;44330;51.360;6.686;2023-10-31T06:59:55;10.90;93.40
42663;DHT22;44330;51.360;6.686;2023-10-31T07:02:21;10.90;93.40
42663;DHT22;44330;51.360;6.686;2023-10-31T07:04:46;10.90;93.20
42663;DHT22;44330;51.360;6.686;2023-10-31T07:07:12;10.90;93.10
42663;DHT22;44330;51.360;6.686;2023-10-31T07:09:37;10.90;93.20
42663;DHT22;44330;51.360;6.686;2023-10-31T07:12:03;10.90;93.10
42663;DHT22;44330;51.360;6.686;2023-10-31T07:14:31;11.00;92.70
42663;DHT22;44330;51.360;6.686;2023-10-31T07:16:56;11.00;92.50
42663;DHT22;44330;51.360;6.686;2023-10-31T07:19:22;11.00;92.50
42663;DHT22;44330;51.360;6.686;2023-10-31T07:21:48;11.00;92.50
42663;DHT22;44330;51.360;6.686;2023-10-31T07:24:13;11.00;92.40
42663;DHT22;44330;51.360;6.686;2023-10-31T07:26:39;11.00;92.50
42663;DHT22;44330;51.360;6.686;2023-10-31T07:29:04;11.00;92.60
42663;DHT22;44330;51.360;6.686;2023-10-31T07:31:30;11.00;92.40
42663;DHT22;44330;51.360;6.686;2023-10-31T07:33:59;11.00;92.20
42663;DHT22;44330;51.360;6.686;2023-10-31T07:36:24;11.10;91.90
42663;DHT22;44330;51.360;6.686;2023-10-31T07:38:50;11.10;91.70
42663;DHT22;44330;51.360;6.686;2023-10-31T07:41:16;11.20;91.30
42663;DHT22;44330;51.360;6.686;2023-10-31T07:43:41;11.20;91.30
42663;DHT22;44330;51.360;6.686;2023-10-31T07:46:06;11.20;91.40
42663;DHT22;44330;51.360;6.686;2023-10-31T07:48:32;11.20;91.10
42663;DHT22;44330;51.360;6.686;2023-10-31T07:50:58;11.20;90.50
42663;DHT22;44330;51.360;6.686;2023-10-31T07:53:23;11.20;90.40
42663;DHT22;44330;51.360;6.686;2023-10-31T07:55:49;11.10;90.30
42663;DHT22;44330;51.360;6.686;2023-10-31T07:58:14;11.10;90.60
42663;DHT22;44330;51.360;6.686;2023-10-31T08:00:40;11.10;90.40
42663;DHT22;44330;51.360;6.686;2023-10-31T08:03:06;11.10;90.60
42663;DHT22;44330;51.360;6.686;2023-10-31T08:05:31;11.10;89.70
42663;DHT22;44330;51.360;6.686;2023-10-31T08:07:57;11.10;89.90
42663;DHT22;44330;51.360;6.686;2023-10-31T08:10:23;11.10;90.00
42663;DHT22;44330;51.360;6.686;2023-10-31T08:12:52;11.10;89.10
42663;DHT22;44330;51.360;6.686;2023-10-31T08:15:18;11.10;89.70
42663;DHT22;44330;51.360;6.686;2023-10-31T08:17:43;11.20;89.40
42663;DHT22;44330;51.360;6.686;2023-10-31T08:20:09;11.10;88.90
42663;DHT22;44330;51.360;6.686;2023-10-31T08:22:36;11.20;88.50
42663;DHT22;44330;51.360;6.686;2023-10-31T08:25:01;11.20;87.10
42663;DHT22;44330;51.360;6.686;2023-10-31T08:27:27;11.20;85.80
42663;DHT22;44330;51.360;6.686;2023-10-31T08:29:52;11.20;86.20
42663;DHT22;44330;51.360;6.686;2023-10-31T08:32:18;11.20;86.00
42663;DHT22;44330;51.360;6.686;2023-10-31T08:34:43;11.20;86.50
42663;DHT22;44330;51.360;6.686;2023-10-31T08:37:09;11.20;86.10
42663;DHT22;44330;51.360;6.686;2023-10-31T08:39:34;11.20;86.80
42663;DHT22;44330;51.360;6.686;2023-10-31T08:42:02;11.20;85.10
42663;DHT22;44330;51.360;6.686;2023-10-31T08:44:28;11.40;85.80
42663;DHT22;44330;51.360;6.686;2023-10-31T08:46:53;11.40;85.60
42663;DHT22;44330;51.360;6.686;2023-10-31T08:49:19;11.40;84.60
42663;DHT22;44330;51.360;6.686;2023-10-31T08:51:45;11.40;86.10
42663;DHT22;44330;51.360;6.686;2023-10-31T08:54:10;11.40;86.10
42663;DHT22;44330;51.360;6.686;2023-10-31T08:56:36;11.40;85.30
42663;DHT22;44330;51.360;6.686;2023-10-31T08:59:02;11.50;85.50
42663;DHT22;44330;51.360;6.686;2023-10-31T09:01:27;11.60;83.40
42663;DHT22;44330;51.360;6.686;2023-10-31T09:03:56;11.60;85.30
42663;DHT22;44330;51.360;6.686;2023-10-31T09:06:23;11.60;84.80
42663;DHT22;44330;51.360;6.686;2023-10-31T09:08:49;11.60;84.50
42663;DHT22;44330;51.360;6.686;2023-10-31T09:11:15;11.90;86.70
42663;DHT22;44330;51.360;6.686;2023-10-31T09:13:40;12.20;81.50
42663;DHT22;44330;51.360;6.686;2023-10-31T09:16:06;12.30;81.00
42663;DHT22;44330;51.360;6.686;2023-10-31T09:18:32;12.50;75.00
42663;DHT22;44330;51.360;6.686;2023-10-31T09:20:57;12.50;76.90
42663;DHT22;44330;51.360;6.686;2023-10-31T09:23:23;12.50;80.40
42663;DHT22;44330;51.360;6.686;2023-10-31T09:25:49;12.50;73.60
42663;DHT22;44330;51.360;6.686;2023-10-31T09:28:20;12.60;71.30
42663;DHT22;44330;51.360;6.686;2023-10-31T09:30:45;12.60;73.20
42663;DHT22;44330;51.360;6.686;2023-10-31T09:33:11;12.70;75.40
42663;DHT22;44330;51.360;6.686;2023-10-31T09:35:36;12.90;69.10
42663;DHT22;44330;51.360;6.686;2023-10-31T09:38:02;13.00;66.30
42663;DHT22;44330;51.360;6.686;2023-10-31T09:40:28;12.90;60.70
42663;DHT22;44330;51.360;6.686;2023-10-31T09:42:54;12.90;62.40
42663;DHT22;44330;51.360;6.686;2023-10-31T09:45:19;12.90;65.80
42663;DHT22;44330;51.360;6.686;2023-10-31T09:47:45;12.90;64.20
42663;DHT22;44330;51.360;6.686;2023-10-31T09:50:11;12.90;56.40
42663;DHT22;44330;51.360;6.686;2023-10-31T09:52:36;12.90;57.40
42663;DHT22;44330;51.360;6.686;2023-10-31T09:55:02;12.90;61.40
42663;DHT22;44330;51.360;6.686;2023-10-31T09:57:28;12.80;55.30
42663;DHT22;44330;51.360;6.686;2023-10-31T09:59:54;12.80;59.60
42663;DHT22;44330;51.360;6.686;2023-10-31T10:02:27;12.70;62.80
42663;DHT22;44330;51.360;6.686;2023-10-31T10:04:52;12.60;59.70
42663;DHT22;44330;51.360;6.686;2023-10-31T10:10:21;12.70;68.10
42663;DHT22;44330;51.360;6.686;2023-10-31T10:12:53;12.80;68.10
42663;DHT22;44330;51.360;6.686;2023-10-31T10:15:20;13.00;60.50
42663;DHT22;44330;51.360;6.686;2023-10-31T10:17:55;13.20;50.20
42663;DHT22;44330;51.360;6.686;2023-10-31T10:20:21;13.20;45.60
42663;DHT22;44330;51.360;6.686;2023-10-31T10:22:46;13.40;57.90
42663;DHT22;44330;51.360;6.686;2023-10-31T10:25:16;13.40;41.30
42663;DHT22;44330;51.360;6.686;2023-10-31T10:27:50;13.50;36.90
42663;DHT22;44330;51.360;6.686;2023-10-31T10:30:16;13.30;34.70
42663;DHT22;44330;51.360;6.686;2023-10-31T10:32:42;13.30;44.30
42663;DHT22;44330;51.360;6.686;2023-10-31T10:35:07;13.30;39.70
42663;DHT22;44330;51.360;6.686;2023-10-31T10:37:42;13.40;38.40
42663;DHT22;44330;51.360;6.686;2023-10-31T10:40:08;13.40;27.70
42663;DHT22;44330;51.360;6.686;2023-10-31T10:42:45;13.60;26.80
42663;DHT22;44330;51.360;6.686;2023-10-31T10:45:14;13.70;29.00
42663;DHT22;44330;51.360;6.686;2023-10-31T10:47:41;14.00;22.20
42663;DHT22;44330;51.360;6.686;2023-10-31T10:50:09;14.00;22.20
42663;DHT22;44330;51.360;6.686;2023-10-31T10:52:44;14.10;24.30
42663;DHT22;44330;51.360;6.686;2023-10-31T10:55:21;14.40;22.70
42663;DHT22;44330;51.360;6.686;2023-10-31T10:57:56;14.50;26.10
42663;DHT22;44330;51.360;6.686;2023-10-31T11:00:22;14.70;16.10
42663;DHT22;44330;51.360;6.686;2023-10-31T11:02:51;14.90;3.40
42663;DHT22;44330;51.360;6.686;2023-10-31T11:05:18;14.90;15.30
42663;DHT22;44330;51.360;6.686;2023-10-31T11:07:43;14.80;7.70
42663;DHT22;44330;51.360;6.686;2023-10-31T11:10:09;14.80;1.00
42663;DHT22;44330;51.360;6.686;2023-10-31T11:12:35;14.80;1.00
42663;DHT22;44330;51.360;6.686;2023-10-31T11:15:02;14.70;1.00
42663;DHT22;44330;51.360;6.686;2023-10-31T11:17:31;14.80;4.20
42663;DHT22;44330;51.360;6.686;2023-10-31T11:19:59;14.80;2.70
42663;DHT22;44330;51.360;6.686;2023-10-31T11:22:25;15.00;1.00
42663;DHT22;44330;51.360;6.686;2023-10-31T11:24:51;14.80;1.00
42663;DHT22;44330;51.360;6.686;2023-10-31T11:27:18;14.80;1.00
42663;DHT22;44330;51.360;6.686;2023-10-31T11:29:48;14.80;1.00
42663;DHT22;44330;51.360;6.686;2023-10-31T11:32:14;14.80;1.00
42663;DHT22;44330;51.360;6.686;2023-10-31T11:34:41;14.80;1.00
42663;DHT22;44330;51.360;6.686;2023-10-31T11:37:26;14.80;1.00
42663;DHT22;44330;51.360;6.686;2023-10-31T11:40:27;14.90;1.00
42663;DHT22;44330;51.360;6.686;2023-10-31T11:42:50;14.80;1.00
42663;DHT22;44330;51.360;6.686;2023-10-31T11:45:27;14.90;1.00
42663;DHT22;44330;51.360;6.686;2023-10-31T11:47:56;15.00;1.00
42663;DHT22;44330;51.360;6.686;2023-10-31T11:50:22;15.00;1.00
42663;DHT22;44330;51.360;6.686;2023-10-31T11:53:04;15.00;1.00
42663;DHT22;44330;51.360;6.686;2023-10-31T12:04:02;14.80;1.00
42663;DHT22;44330;51.360;6.686;2023-10-31T12:06:29;14.70;1.00
42663;DHT22;44330;51.360;6.686;2023-10-31T12:09:06;14.80;1.00
42663;DHT22;44330;51.360;6.686;2023-10-31T12:11:37;14.80;1.00
42663;DHT22;44330;51.360;6.686;2023-10-31T12:14:09;14.90;1.00
42663;DHT22;44330;51.360;6.686;2023-10-31T12:16:35;15.00;1.00
42663;DHT22;44330;51.360;6.686;2023-10-31T12:19:04;15.00;1.00
42663;DHT22;44330;51.360;6.686;2023-10-31T12:21:37;15.00;1.00
42663;DHT22;44330;51.360;6.686;2023-10-31T12:24:04;15.00;1.00
42663;DHT22;44330;51.360;6.686;2023-10-31T12:26:34;14.90;1.00
42663;DHT22;44330;51.360;6.686;2023-10-31T12:31:39;14.90;1.00
42663;DHT22;44330;51.360;6.686;2023-10-31T12:34:05;14.80;1.00
42663;DHT22;44330;51.360;6.686;2023-10-31T12:36:32;14.90;1.00
42663;DHT22;44330;51.360;6.686;2023-10-31T12:39:02;14.80;1.00
42663;DHT22;44330;51.360;6.686;2023-10-31T12:44:27;14.80;1.00
42663;DHT22;44330;51.360;6.686;2023-10-31T12:46:56;14.70;1.00
42663;DHT22;44330;51.360;6.686;2023-10-31T12:49:38;14.60;1.00
42663;DHT22;44330;51.360;6.686;2023-10-31T12:52:16;14.50;1.00
42663;DHT22;44330;51.360;6.686;2023-10-31T12:54:41;14.40;1.00
42663;DHT22;44330;51.360;6.686;2023-10-31T13:02:46;14.50;1.00
42663;DHT22;44330;51.360;6.686;2023-10-31T13:05:14;14.40;1.00
42663;DHT22;44330;51.360;6.686;2023-10-31T13:07:51;14.40;1.00
42663;DHT22;44330;51.360;6.686;2023-10-31T13:10:29;14.50;1.00
42663;DHT22;44330;51.360;6.686;2023-10-31T13:13:01;14.60;1.00
42663;DHT22;44330;51.360;6.686;2023-10-31T13:15:29;14.70;1.00
42663;DHT22;44330;51.360;6.686;2023-10-31T13:17:59;14.70;1.00
42663;DHT22;44330;51.360;6.686;2023-10-31T13:20:32;14.80;1.00
42663;DHT22;44330;51.360;6.686;2023-10-31T13:22:58;14.80;1.00
42663;DHT22;44330;51.360;6.686;2023-10-31T13:25:27;14.80;1.00
42663;DHT22;44330;51.360;6.686;2023-10-31T13:27:53;14.80;1.00
42663;DHT22;44330;51.360;6.686;2023-10-31T13:30:19;14.90;1.00
42663;DHT22;44330;51.360;6.686;2023-10-31T13:32:46;14.90;1.00
42663;DHT22;44330;51.360;6.686;2023-10-31T13:35:14;15.00;1.00
42663;DHT22;44330;51.360;6.686;2023-10-31T13:38:10;15.00;1.00
42663;DHT22;44330;51.360;6.686;2023-10-31T13:43:41;15.00;1.00
42663;DHT22;44330;51.360;6.686;2023-10-31T13:46:06;14.90;1.00
42663;DHT22;44330;51.360;6.686;2023-10-31T13:48:48;14.80;1.00
42663;DHT22;44330;51.360;6.686;2023-10-31T13:51:25;14.80;1.00
42663;DHT22;44330;51.360;6.686;2023-10-31T13:53:51;14.80;1.00
42663;DHT22;44330;51.360;6.686;2023-10-31T13:56:17;14.80;1.00
42663;DHT22;44330;51.360;6.686;2023-10-31T13:58:43;14.90;1.00
42663;DHT22;44330;51.360;6.686;2023-10-31T14:01:08;15.00;1.00
42663;DHT22;44330;51.360;6.686;2023-10-31T14:03:35;15.00;1.00
42663;DHT22;44330;51.360;6.686;2023-10-31T14:06:03;15.10;1.00
42663;DHT22;44330;51.360;6.686;2023-10-31T14:08:29;15.20;1.00
42663;DHT22;44330;51.360;6.686;2023-10-31T14:10:55;15.10;1.00
42663;DHT22;44330;51.360;6.686;2023-10-31T14:13:22;15.10;1.00
42663;DHT22;44330;51.360;6.686;2023-10-31T14:15:47;15.10;1.00
42663;DHT22;44330;51.360;6.686;2023-10-31T14:18:13;15.00;1.00
42663;DHT22;44330;51.360;6.686;2023-10-31T14:20:40;15.00;1.00
42663;DHT22;44330;51.360;6.686;2023-10-31T14:23:06;14.90;1.00
42663;DHT22;44330;51.360;6.686;2023-10-31T14:25:32;15.00;1.00
42663;DHT22;44330;51.360;6.686;2023-10-31T14:28:05;15.00;1.00
42663;DHT22;44330;51.360;6.686;2023-10-31T14:30:33;15.10;1.00
42663;DHT22;44330;51.360;6.686;2023-10-31T14:33:02;15.10;1.00
42663;DHT22;44330;51.360;6.686;2023-10-31T14:40:58;15.00;1.00
42663;DHT22;44330;51.360;6.686;2023-10-31T14:43:32;15.00;1.00
42663;DHT22;44330;51.360;6.686;2023-10-31T14:46:01;15.00;1.00
42663;DHT22;44330;51.360;6.686;2023-10-31T14:48:38;14.90;1.00
42663;DHT22;44330;51.360;6.686;2023-10-31T15:00:04;14.70;1.00
42663;DHT22;44330;51.360;6.686;2023-10-31T15:02:32;14.60;1.00
42663;DHT22;44330;51.360;6.686;2023-10-31T15:05:02;14.50;1.00
42663;DHT22;44330;51.360;6.686;2023-10-31T15:14:00;14.20;1.00
42663;DHT22;44330;51.360;6.686;2023-10-31T15:16:26;14.10;1.00
42663;DHT22;44330;51.360;6.686;2023-10-31T15:18:52;14.00;1.00
42663;DHT22;44330;51.360;6.686;2023-10-31T15:27:34;14.10;1.00
42663;DHT22;44330;51.360;6.686;2023-10-31T15:30:00;14.00;1.00
42663;DHT22;44330;51.360;6.686;2023-10-31T15:32:35;13.90;1.00
42663;DHT22;44330;51.360;6.686;2023-10-31T15:35:03;13.90;1.00
42663;DHT22;44330;51.360;6.686;2023-10-31T15:42:34;13.80;12.40
42663;DHT22;44330;51.360;6.686;2023-10-31T15:45:00;13.90;8.30
42663;DHT22;44330;51.360;6.686;2023-10-31T15:47:26;13.80;9.90
42663;DHT22;44330;51.360;6.686;2023-10-31T15:49:51;13.80;9.10
42663;DHT22;44330;51.360;6.686;2023-10-31T15:52:17;13.80;9.10
42663;DHT22;44330;51.360;6.686;2023-10-31T15:57:32;13.80;13.10
42663;DHT22;44330;51.360;6.686;2023-10-31T16:00:31;13.80;20.20
42663;DHT22;44330;51.360;6.686;2023-10-31T16:03:10;13.80;28.30
42663;DHT22;44330;51.360;6.686;2023-10-31T16:05:36;13.70;45.80
42663;DHT22;44330;51.360;6.686;2023-10-31T16:08:01;13.50;55.20
42663;DHT22;44330;51.360;6.686;2023-10-31T16:10:28;13.30;61.40
42663;DHT22;44330;51.360;6.686;2023-10-31T16:12:53;13.20;66.10
42663;DHT22;44330;51.360;6.686;2023-10-31T16:15:20;13.00;70.20
42663;DHT22;44330;51.360;6.686;2023-10-31T16:17:49;12.90;74.40
42663;DHT22;44330;51.360;6.686;2023-10-31T16:20:15;12.90;76.20
42663;DHT22;44330;51.360;6.686;2023-10-31T16:22:40;12.80;77.80
42663;DHT22;44330;51.360;6.686;2023-10-31T16:25:06;12.70;80.50
42663;DHT22;44330;51.360;6.686;2023-10-31T16:27:32;12.60;81.40
42663;DHT22;44330;51.360;6.686;2023-10-31T16:29:58;12.70;81.70
42663;DHT22;44330;51.360;6.686;2023-10-31T16:32:23;12.50;82.00
42663;DHT22;44330;51.360;6.686;2023-10-31T16:34:49;12.50;83.60